createdAt,value
2022-11-09T00:01:14.875Z,80.43
2022-11-09T00:04:02.095Z,80.08
2022-11-09T00:06:46.569Z,80.44
2022-11-09T00:09:30.790Z,80.02
2022-11-09T00:12:15.239Z,79.62
2022-11-09T00:14:59.385Z,79.49
2022-11-09T00:17:44.913Z,79.10
2022-11-09T00:20:30.884Z,78.67
2022-11-09T00:23:14.798Z,78.65
2022-11-09T00:26:01.859Z,78.19
2022-11-09T00:28:45.959Z,77.81
2022-11-09T00:31:29.915Z,77.63
2022-11-09T00:34:15.514Z,77.19
2022-11-09T00:36:59.630Z,77.03
2022-11-09T00:39:44.062Z,77.50
2022-11-09T00:42:28.013Z,77.58
2022-11-09T00:45:12.249Z,77.81
2022-11-09T00:47:56.217Z,77.07
2022-11-09T00:50:41.549Z,77.22
2022-11-09T00:53:26.206Z,78.09
2022-11-09T00:56:12.466Z,77.41
2022-11-09T00:58:57.506Z,77.66
2022-11-09T01:01:41.332Z,77.65
2022-11-09T01:04:25.126Z,76.98
2022-11-09T01:07:11.329Z,76.94
2022-11-09T01:09:55.143Z,77.44
2022-11-09T01:12:41.379Z,76.83
2022-11-09T01:15:25.221Z,76.25
2022-11-09T01:18:09.150Z,76.64
2022-11-09T01:20:53.028Z,76.38
2022-11-09T01:23:38.517Z,76.63
2022-11-09T01:26:22.667Z,77.17
2022-11-09T01:29:08.033Z,77.44
2022-11-09T01:31:51.719Z,77.46
2022-11-09T01:34:35.709Z,78.44
2022-11-09T01:37:19.430Z,78.82
2022-11-09T01:40:05.337Z,77.31
2022-11-09T01:42:50.430Z,77.52
2022-11-09T01:45:34.147Z,77.11
2022-11-09T01:48:22.065Z,77.66
2022-11-09T01:51:11.228Z,76.97
2022-11-09T01:54:02.078Z,76.59
2022-11-09T01:56:51.829Z,76.31
2022-11-09T01:59:40.581Z,76.53
2022-11-09T02:02:24.643Z,77.07
2022-11-09T02:05:13.733Z,76.51
2022-11-09T02:07:59.301Z,76.61
2022-11-09T02:10:50.197Z,75.99
2022-11-09T02:13:37.080Z,75.69
2022-11-09T02:16:25.009Z,75.96
2022-11-09T02:19:09.022Z,75.32
2022-11-09T02:21:54.527Z,76.04
2022-11-09T02:24:41.220Z,75.45
2022-11-09T02:27:25.682Z,74.97
2022-11-09T02:30:10.987Z,75.61
2022-11-09T02:32:55.027Z,75.06
2022-11-09T02:35:39.706Z,75.21
2022-11-09T02:38:25.105Z,75.30
2022-11-09T02:41:09.423Z,75.53
2022-11-09T02:43:54.962Z,75.83
2022-11-09T02:46:39.147Z,75.50
2022-11-09T02:49:23.406Z,75.37
2022-11-09T02:52:07.378Z,76.02
2022-11-09T02:54:52.931Z,75.69
2022-11-09T02:57:36.959Z,76.05
2022-11-09T03:00:21.517Z,76.38
2022-11-09T03:03:06.248Z,76.53
2022-11-09T03:05:50.196Z,75.75
2022-11-09T03:08:34.775Z,76.00
2022-11-09T03:11:19.910Z,75.50
2022-11-09T03:14:04.440Z,74.92
2022-11-09T03:16:50.713Z,74.84
2022-11-09T03:19:35.780Z,75.48
2022-11-09T03:22:20.221Z,75.79
2022-11-09T03:25:05.082Z,75.74
2022-11-09T03:27:50.640Z,75.38
2022-11-09T03:30:34.637Z,75.88
2022-11-09T03:33:19.159Z,75.28
2022-11-09T03:36:03.619Z,75.78
2022-11-09T03:38:47.301Z,75.60
2022-11-09T03:41:31.244Z,75.17
2022-11-09T03:44:16.465Z,75.46
2022-11-09T03:47:00.206Z,75.96
2022-11-09T03:49:43.916Z,75.16
2022-11-09T03:52:27.617Z,75.62
2022-11-09T03:55:11.540Z,76.14
2022-11-09T03:57:56.076Z,76.34
2022-11-09T04:00:41.193Z,75.66
2022-11-09T04:03:24.917Z,76.38
2022-11-09T04:06:09.001Z,76.76
2022-11-09T04:08:53.216Z,76.09
2022-11-09T04:11:37.014Z,76.83
2022-11-09T04:14:20.688Z,76.51
2022-11-09T04:17:05.808Z,76.43
2022-11-09T04:19:49.502Z,76.01
2022-11-09T04:22:33.377Z,75.85
2022-11-09T04:25:17.391Z,75.71
2022-11-09T04:28:02.263Z,75.69
2022-11-09T04:30:45.941Z,76.02
2022-11-09T04:33:31.217Z,76.36
2022-11-09T04:36:14.987Z,76.07
2022-11-09T04:38:58.685Z,76.15
2022-11-09T04:41:42.406Z,75.88
2022-11-09T04:44:26.200Z,76.36
2022-11-09T04:47:09.936Z,75.87
2022-11-09T04:49:55.042Z,75.97
2022-11-09T04:52:38.804Z,75.72
2022-11-09T04:55:22.829Z,75.94
2022-11-09T04:58:06.665Z,75.58
2022-11-09T05:00:50.654Z,75.19
2022-11-09T05:03:34.936Z,75.17
2022-11-09T05:06:35.389Z,75.63
2022-11-09T05:09:19.471Z,75.32
2022-11-09T05:12:03.417Z,75.69
2022-11-09T05:14:47.321Z,75.66
2022-11-09T05:17:31.327Z,75.23
2022-11-09T05:20:15.631Z,75.06
2022-11-09T05:23:19.087Z,75.02
2022-11-09T05:26:03.445Z,74.80
2022-11-09T05:28:47.407Z,74.19
2022-11-09T05:31:32.110Z,74.17
2022-11-09T05:34:16.344Z,73.41
2022-11-09T05:37:03.501Z,74.08
2022-11-09T05:39:49.259Z,75.04
2022-11-09T05:42:33.203Z,75.31
2022-11-09T05:45:41.464Z,75.28
2022-11-09T05:48:23.116Z,74.80
2022-11-09T05:51:08.377Z,74.66
2022-11-09T05:53:52.438Z,74.39
2022-11-09T05:56:37.759Z,75.81
2022-11-09T05:59:21.846Z,75.92
2022-11-09T06:02:05.845Z,75.63
2022-11-09T06:04:49.910Z,75.02
2022-11-09T06:07:34.301Z,74.43
2022-11-09T06:10:18.428Z,74.95
2022-11-09T06:13:03.915Z,74.23
2022-11-09T06:15:54.585Z,74.36
2022-11-09T06:18:38.645Z,75.23
2022-11-09T06:21:22.705Z,75.23
2022-11-09T06:24:06.984Z,76.02
2022-11-09T06:26:50.944Z,75.71
2022-11-09T06:29:36.354Z,75.01
2022-11-09T06:32:20.302Z,74.04
2022-11-09T06:35:04.428Z,73.36
2022-11-09T06:37:48.707Z,72.98
2022-11-09T06:40:33.829Z,73.35
2022-11-09T06:43:18.057Z,72.87
2022-11-09T06:46:05.721Z,72.30
2022-11-09T06:48:54.350Z,73.00
2022-11-09T06:51:38.474Z,72.03
2022-11-09T06:54:22.189Z,71.25
2022-11-09T06:57:06.015Z,70.23
2022-11-09T06:59:49.920Z,68.79
2022-11-09T07:02:35.570Z,68.29
2022-11-09T07:05:19.732Z,67.56
2022-11-09T07:08:03.474Z,67.14
2022-11-09T07:10:47.543Z,67.20
2022-11-09T07:13:31.304Z,66.95
2022-11-09T07:16:17.360Z,66.41
2022-11-09T07:19:02.622Z,66.09
2022-11-09T07:21:46.382Z,65.40
2022-11-09T07:24:30.169Z,65.22
2022-11-09T07:27:13.966Z,65.07
2022-11-09T07:29:57.595Z,64.38
2022-11-09T07:35:47.468Z,62.92
2022-11-09T07:38:31.947Z,62.75
2022-11-09T07:41:15.805Z,61.91
2022-11-09T07:43:59.642Z,61.85
2022-11-09T07:46:43.452Z,61.17
2022-11-09T07:49:27.181Z,60.81
2022-11-09T07:52:12.424Z,60.34
2022-11-09T07:54:56.135Z,60.81
2022-11-09T07:57:40.054Z,60.23
2022-11-09T08:00:24.053Z,60.72
2022-11-09T08:03:09.230Z,60.17
2022-11-09T08:05:53.250Z,59.81
2022-11-09T08:08:38.769Z,59.25
2022-11-09T08:11:22.907Z,58.39
2022-11-09T08:14:06.831Z,58.19
2022-11-09T08:16:50.909Z,57.75
2022-11-09T08:19:34.751Z,57.78
2022-11-09T08:22:18.529Z,58.28
2022-11-09T08:25:03.671Z,58.19
2022-11-09T08:27:47.474Z,58.56
2022-11-09T08:30:31.921Z,58.73
2022-11-09T08:33:15.896Z,59.12
2022-11-09T08:35:59.711Z,58.88
2022-11-09T08:38:44.860Z,59.04
2022-11-09T08:41:30.454Z,57.89
2022-11-09T08:44:14.189Z,56.52
2022-11-09T08:46:57.965Z,56.81
2022-11-09T08:49:43.926Z,57.59
2022-11-09T08:52:27.640Z,56.90
2022-11-09T08:55:11.533Z,57.75
2022-11-09T08:57:59.461Z,58.43
2022-11-09T09:00:43.193Z,58.00
2022-11-09T09:03:31.502Z,59.69
2022-11-09T09:06:15.400Z,59.28
2022-11-09T09:08:59.277Z,60.79
2022-11-09T09:11:43.187Z,58.57
2022-11-09T09:14:28.465Z,59.04
2022-11-09T09:17:12.547Z,58.79
2022-11-09T09:19:56.394Z,57.71
2022-11-09T09:22:40.283Z,55.77
2022-11-09T09:25:24.857Z,55.99
2022-11-09T09:28:08.680Z,56.72
2022-11-09T09:30:54.211Z,56.20
2022-11-09T09:33:38.014Z,55.86
2022-11-09T09:36:23.425Z,55.21
2022-11-09T09:39:07.317Z,55.47
2022-11-09T09:41:54.201Z,54.99
2022-11-09T09:44:42.613Z,54.84
2022-11-09T09:47:36.733Z,57.45
2022-11-09T09:50:24.023Z,57.55
2022-11-09T09:53:24.161Z,56.80
2022-11-09T09:56:15.057Z,57.79
2022-11-09T09:59:02.542Z,57.71
2022-11-09T10:01:47.145Z,56.51
2022-11-09T10:04:38.496Z,56.50
2022-11-09T10:07:29.138Z,55.88
2022-11-09T10:10:38.222Z,55.67
2022-11-09T10:13:43.010Z,55.04
2022-11-09T10:16:35.732Z,54.39
2022-11-09T10:19:47.848Z,55.20
2022-11-09T10:22:40.242Z,54.19
2022-11-09T10:25:50.405Z,53.38
2022-11-09T10:28:54.322Z,53.36
2022-11-09T10:31:37.232Z,52.79
2022-11-09T10:34:25.359Z,52.42
2022-11-09T10:37:16.625Z,51.96
2022-11-09T10:40:04.930Z,51.04
2022-11-09T10:43:11.210Z,51.08
2022-11-09T10:46:14.019Z,51.55
2022-11-09T10:49:22.035Z,53.39
2022-11-09T10:52:44.150Z,52.90
2022-11-09T10:55:55.042Z,54.79
2022-11-09T10:58:57.600Z,54.33
2022-11-09T11:02:02.365Z,54.59
2022-11-09T11:05:34.898Z,53.53
2022-11-09T11:08:41.624Z,53.67
2022-11-09T11:11:44.190Z,54.94
2022-11-09T11:14:46.483Z,55.04
2022-11-09T11:17:49.324Z,54.89
2022-11-09T11:21:18.668Z,56.01
2022-11-09T11:24:24.676Z,55.43
2022-11-09T11:27:37.129Z,54.40
2022-11-09T11:30:40.585Z,55.83
2022-11-09T11:33:43.258Z,55.78
2022-11-09T11:37:00.197Z,56.39
2022-11-09T11:40:08.915Z,54.55
2022-11-09T11:43:36.424Z,55.74
2022-11-09T11:46:45.164Z,56.14
2022-11-09T11:50:05.996Z,54.87
2022-11-09T11:53:18.479Z,55.63
2022-11-09T11:56:27.614Z,55.48
2022-11-09T11:59:54.957Z,56.78
2022-11-09T12:03:29.583Z,58.22
2022-11-09T12:06:45.624Z,56.45
2022-11-09T12:10:00.881Z,56.48
2022-11-09T12:13:15.189Z,55.84
2022-11-09T12:16:25.769Z,55.73
2022-11-09T12:19:47.342Z,54.38
2022-11-09T12:23:01.441Z,54.07
2022-11-09T12:26:17.107Z,55.87
2022-11-09T12:29:28.958Z,54.41
2022-11-09T12:32:40.904Z,55.01
2022-11-09T12:35:47.007Z,54.42
2022-11-09T12:38:59.242Z,55.06
2022-11-09T12:42:06.947Z,55.12
2022-11-09T12:45:21.328Z,54.33
2022-11-09T12:48:26.803Z,54.98
2022-11-09T12:51:29.923Z,55.75
2022-11-09T12:54:32.249Z,54.23
2022-11-09T12:57:34.296Z,55.62
2022-11-09T13:00:54.254Z,56.64
2022-11-09T13:03:59.725Z,55.00
2022-11-09T13:07:27.690Z,55.00
2022-11-09T13:10:32.838Z,55.39
2022-11-09T13:13:35.828Z,55.50
2022-11-09T13:16:39.512Z,55.39
2022-11-09T13:19:54.461Z,55.92
2022-11-09T13:23:02.432Z,55.59
2022-11-09T13:26:06.629Z,55.93
2022-11-09T13:29:11.739Z,55.51
2022-11-09T13:32:33.925Z,54.64
2022-11-09T13:36:01.624Z,56.95
2022-11-09T13:39:32.995Z,56.67
2022-11-09T13:42:37.463Z,56.04
2022-11-09T13:45:46.269Z,55.35
2022-11-09T13:48:51.054Z,55.98
2022-11-09T13:51:53.494Z,57.64
2022-11-09T13:54:55.874Z,58.65
2022-11-09T13:58:01.879Z,60.31
2022-11-09T14:01:04.274Z,60.10
2022-11-09T14:04:07.771Z,59.81
2022-11-09T14:07:18.383Z,60.86
2022-11-09T14:10:31.338Z,61.08
2022-11-09T14:14:02.282Z,60.96
2022-11-09T14:17:13.530Z,60.60
2022-11-09T14:20:28.720Z,61.13
2022-11-09T14:23:33.605Z,61.40
2022-11-09T14:26:35.940Z,61.76
2022-11-09T14:29:47.621Z,61.50
2022-11-09T14:32:51.651Z,62.02
2022-11-09T14:35:58.590Z,61.59
2022-11-09T14:39:02.813Z,61.46
2022-11-09T14:42:07.882Z,61.92
2022-11-09T14:45:16.275Z,60.88
2022-11-09T14:48:20.678Z,62.02
2022-11-09T14:51:31.345Z,62.40
2022-11-09T14:54:33.787Z,63.22
2022-11-09T14:57:38.224Z,63.18
2022-11-09T15:00:45.653Z,63.47
2022-11-09T15:04:07.542Z,63.46
2022-11-09T15:07:21.664Z,63.93
2022-11-09T15:10:29.724Z,64.68
2022-11-09T15:13:34.646Z,65.65
2022-11-09T15:16:37.330Z,66.26
2022-11-09T15:19:48.879Z,66.97
2022-11-09T15:22:55.108Z,67.34
2022-11-09T15:25:57.445Z,68.67
2022-11-09T15:29:00.270Z,69.10
2022-11-09T15:32:18.269Z,68.23
2022-11-09T15:35:21.241Z,68.13
2022-11-09T15:38:37.277Z,68.59
2022-11-09T15:41:39.743Z,69.57
2022-11-09T15:44:42.189Z,70.64
2022-11-09T15:47:51.411Z,72.77
2022-11-09T15:50:54.154Z,72.59
2022-11-09T15:53:58.150Z,74.02
2022-11-09T15:57:00.603Z,73.43
2022-11-09T16:00:07.974Z,73.63
2022-11-09T16:03:17.296Z,72.87
2022-11-09T16:06:22.410Z,72.21
2022-11-09T16:09:26.223Z,72.38
2022-11-09T16:12:28.640Z,71.44
2022-11-09T16:15:31.604Z,71.26
2022-11-09T16:18:34.200Z,71.74
2022-11-09T16:21:36.555Z,70.86
2022-11-09T16:24:40.544Z,70.85
2022-11-09T16:27:50.191Z,71.39
2022-11-09T16:30:53.032Z,72.16
2022-11-09T16:33:55.651Z,72.51
2022-11-09T16:36:58.223Z,71.80
2022-11-09T16:40:03.426Z,72.01
2022-11-09T16:43:05.862Z,72.73
2022-11-09T16:46:08.690Z,72.20
2022-11-09T16:49:11.236Z,72.28
2022-11-09T16:52:13.800Z,71.86
2022-11-09T16:55:17.853Z,71.94
2022-11-09T16:58:20.420Z,73.38
2022-11-09T17:01:23.824Z,73.99
2022-11-09T17:04:26.964Z,74.77
2022-11-09T17:07:29.480Z,73.66
2022-11-09T17:10:32.886Z,73.24
2022-11-09T17:13:35.264Z,73.55
2022-11-09T17:16:37.872Z,74.16
2022-11-09T17:19:40.820Z,73.09
2022-11-09T17:22:46.105Z,73.79
2022-11-09T17:25:57.437Z,73.54
2022-11-09T17:28:59.532Z,73.58
2022-11-09T17:32:01.868Z,73.87
2022-11-09T17:35:04.367Z,74.53
2022-11-09T17:38:06.683Z,73.53
2022-11-09T17:41:13.045Z,73.38
2022-11-09T17:44:15.357Z,73.89
2022-11-09T17:47:17.722Z,73.74
2022-11-09T17:50:21.345Z,73.60
2022-11-09T17:53:23.622Z,73.93
2022-11-09T17:56:27.105Z,74.67
2022-11-09T17:59:29.671Z,77.18
2022-11-09T18:02:32.207Z,76.67
2022-11-09T18:05:38.870Z,77.49
2022-11-09T18:08:42.448Z,77.02
2022-11-09T18:11:46.153Z,76.06
2022-11-09T18:14:48.835Z,78.23
2022-11-09T18:17:51.088Z,77.86
2022-11-09T18:20:53.373Z,78.22
2022-11-09T18:23:56.424Z,77.57
2022-11-09T18:27:00.412Z,78.38
2022-11-09T18:30:03.825Z,79.43
2022-11-09T18:33:06.336Z,79.59
2022-11-09T18:36:11.575Z,77.87
2022-11-09T18:39:13.758Z,76.50
2022-11-09T18:42:17.847Z,76.08
2022-11-09T18:45:21.928Z,77.89
2022-11-09T18:48:24.228Z,77.82
2022-11-09T18:51:27.101Z,78.26
2022-11-09T18:54:29.824Z,78.14
2022-11-09T18:57:33.186Z,78.86
2022-11-09T19:00:35.614Z,78.92
2022-11-09T19:03:38.482Z,78.53
2022-11-09T19:06:41.113Z,79.84
2022-11-09T19:09:43.768Z,80.16
2022-11-09T19:12:47.983Z,79.92
2022-11-09T19:15:53.184Z,79.94
2022-11-09T19:18:58.151Z,79.97
2022-11-09T19:22:00.930Z,80.05
2022-11-09T19:25:03.493Z,80.18
2022-11-09T19:28:07.207Z,80.09
2022-11-09T19:31:13.107Z,80.21
2022-11-09T19:34:17.226Z,79.63
2022-11-09T19:37:19.545Z,79.32
2022-11-09T19:40:21.763Z,79.97
2022-11-09T19:43:25.793Z,79.92
2022-11-09T19:46:30.518Z,79.97
2022-11-09T19:49:32.858Z,78.52
2022-11-09T19:52:37.476Z,79.36
2022-11-09T19:55:39.714Z,80.36
2022-11-09T19:58:43.290Z,80.12
2022-11-09T20:01:45.250Z,79.73
2022-11-09T20:04:49.563Z,79.56
2022-11-09T20:07:52.218Z,79.85
2022-11-09T20:10:55.301Z,78.68
2022-11-09T20:13:59.115Z,76.79
2022-11-09T20:17:03.515Z,76.68
2022-11-09T20:20:07.210Z,77.66
2022-11-09T20:23:09.440Z,78.30
2022-11-09T20:26:12.953Z,78.82
2022-11-09T20:29:16.569Z,80.53
2022-11-09T20:32:21.565Z,80.66
2022-11-09T20:35:24.190Z,79.08
2022-11-09T20:38:26.470Z,79.12
2022-11-09T20:41:29.140Z,78.24
2022-11-09T20:44:32.618Z,77.87
2022-11-09T20:48:03.300Z,78.27
2022-11-09T20:51:03.311Z,79.18
2022-11-09T20:54:07.655Z,80.51
2022-11-09T20:57:10.494Z,79.27
2022-11-09T21:00:17.283Z,78.52
2022-11-09T21:03:23.053Z,77.15
2022-11-09T21:06:25.184Z,79.31
2022-11-09T21:09:27.313Z,77.78
2022-11-09T21:12:30.150Z,76.92
2022-11-09T21:15:34.031Z,77.10
2022-11-09T21:18:36.644Z,78.57
2022-11-09T21:21:38.712Z,78.04
2022-11-09T21:24:58.625Z,77.33
2022-11-09T21:28:18.387Z,77.44
2022-11-09T21:31:22.272Z,78.18
2022-11-09T21:34:24.393Z,78.04
2022-11-09T21:37:27.009Z,78.77
2022-11-09T21:40:29.041Z,79.53
2022-11-09T21:43:31.511Z,80.35
2022-11-09T21:46:37.065Z,80.54
2022-11-09T21:49:39.417Z,80.72
2022-11-09T21:52:41.905Z,80.29
2022-11-09T21:55:44.168Z,81.12
2022-11-09T21:58:47.809Z,80.90
2022-11-09T22:01:52.229Z,81.90
2022-11-09T22:04:54.444Z,81.79
2022-11-09T22:07:56.754Z,81.55
2022-11-09T22:11:05.431Z,82.45
2022-11-09T22:14:24.724Z,82.07
2022-11-09T22:17:28.244Z,81.97
2022-11-09T22:20:47.450Z,81.47
2022-11-09T22:23:50.252Z,81.53
2022-11-09T22:26:52.367Z,82.27
2022-11-09T22:29:54.738Z,82.59
2022-11-09T22:32:59.094Z,81.25
2022-11-09T22:36:04.007Z,81.23
2022-11-09T22:39:06.145Z,81.69
2022-11-09T22:42:08.998Z,81.57
2022-11-09T22:45:11.644Z,81.78
2022-11-09T22:48:15.391Z,82.14
2022-11-09T22:51:19.444Z,82.54
2022-11-09T22:54:22.946Z,82.81
2022-11-09T22:57:25.585Z,82.58
2022-11-09T23:00:27.645Z,82.17
2022-11-09T23:03:31.207Z,82.84
2022-11-09T23:06:33.928Z,82.57
2022-11-09T23:09:36.362Z,82.65
2022-11-09T23:12:38.505Z,83.67
2022-11-09T23:15:40.948Z,82.66
2022-11-09T23:18:57.060Z,82.89
2022-11-09T23:21:59.543Z,82.76
2022-11-09T23:25:19.197Z,83.35
2022-11-09T23:28:21.341Z,82.95
2022-11-09T23:31:25.309Z,82.94
2022-11-09T23:34:28.783Z,83.08
2022-11-09T23:37:31.036Z,82.90
2022-11-09T23:40:35.467Z,83.10
2022-11-09T23:43:38.331Z,83.61
2022-11-09T23:46:40.280Z,82.53
2022-11-09T23:49:44.117Z,82.63
2022-11-09T23:52:46.986Z,83.17
2022-11-09T23:55:49.224Z,82.95
2022-11-09T23:58:51.870Z,82.85
